Houlton, Maine
Current Conditions -  °F | °C
As of 2:53 AM on Thursday 27 Nov 2014 (Local Time) from KHUL Reporting Station
Moderate Fog Moderate Fog  
Wind Chill: -11°   Ceiling: 600
Heat Index: -4°   Visibility: 0.5mi
Dew Point: -5°   Wind: 15mph
Humidity: 92%   Direction: 360°N
Pressure: 29.79"   Gusts: 24mph
Location:  46.13°N, 67.84°W
Report Text: KHUL 270753Z AUTO 36013G21KT 1/2SM FZFG VV006 M04/M05 A2979 RMK AO2 SNEMM SLP096 P0001 T10391050 PWINO FZRANO $
Loading
Personal Weather Stations






























Interactive Weather Map New forecast layout! Learn more

10-Day Weather Forecast

Advertisements
Track Severe Weather on mobile